createdAt,value
2019-02-09T00:02:09.014Z,29.33
2019-02-09T00:05:15.101Z,39.73
2019-02-09T00:08:20.995Z,35.90
2019-02-09T00:11:26.981Z,31.20
2019-02-09T00:14:32.940Z,25.90
2019-02-09T00:17:38.942Z,25.37
2019-02-09T00:20:44.819Z,26.37
2019-02-09T00:23:50.773Z,27.13
2019-02-09T00:26:56.518Z,43.77
2019-02-09T00:30:02.293Z,28.17
2019-02-09T00:33:08.275Z,27.10
2019-02-09T00:36:14.168Z,27.83
2019-02-09T00:39:19.945Z,30.13
2019-02-09T00:42:25.718Z,28.23
2019-02-09T00:45:31.611Z,27.57
2019-02-09T00:48:37.402Z,31.47
2019-02-09T00:51:43.162Z,28.07
2019-02-09T00:54:49.019Z,31.40
2019-02-09T00:57:56.140Z,23.43
2019-02-09T01:01:42.018Z,25.77
2019-02-09T01:04:49.514Z,33.27
2019-02-09T01:07:55.572Z,27.10
2019-02-09T01:11:01.443Z,28.07
2019-02-09T01:14:07.354Z,32.93
2019-02-09T01:17:13.119Z,34.90
2019-02-09T01:20:21.867Z,32.57
2019-02-09T01:23:27.632Z,31.43
2019-02-09T01:26:33.521Z,31.83
2019-02-09T01:29:39.373Z,33.57
2019-02-09T01:32:45.249Z,31.40
2019-02-09T01:35:51.026Z,26.90
2019-02-09T01:38:56.799Z,29.83
2019-02-09T01:42:02.574Z,32.07
2019-02-09T01:45:10.057Z,33.10
2019-02-09T01:48:15.826Z,38.73
2019-02-09T01:51:21.709Z,39.10
2019-02-09T01:54:27.476Z,32.23
2019-02-09T01:57:33.368Z,27.30
2019-02-09T02:00:39.343Z,34.23
2019-02-09T02:03:45.245Z,39.13
2019-02-09T02:06:51.002Z,32.70
2019-02-09T02:09:56.780Z,29.23
2019-02-09T02:13:03.533Z,30.13
2019-02-09T02:16:09.503Z,38.43
2019-02-09T02:19:15.294Z,37.60
2019-02-09T02:22:21.077Z,36.27
2019-02-09T02:25:27.281Z,33.13
2019-02-09T02:28:33.192Z,28.97
2019-02-09T02:31:38.961Z,29.80
2019-02-09T02:34:44.791Z,28.37
2019-02-09T02:37:50.676Z,30.20
2019-02-09T02:40:56.424Z,29.53
2019-02-09T02:44:02.203Z,28.87
2019-02-09T02:47:07.970Z,29.57
2019-02-09T02:50:16.432Z,32.03
2019-02-09T02:53:22.195Z,29.47
2019-02-09T02:56:28.006Z,27.97
2019-02-09T02:59:33.877Z,27.97
2019-02-09T03:02:39.730Z,28.47
2019-02-09T03:05:45.526Z,31.40
2019-02-09T03:08:51.465Z,28.07
2019-02-09T03:12:03.590Z,27.93
2019-02-09T03:15:16.616Z,24.73
2019-02-09T03:18:22.411Z,25.10
2019-02-09T03:21:28.229Z,24.37
2019-02-09T03:24:34.011Z,27.50
2019-02-09T03:27:39.894Z,26.33
2019-02-09T03:30:48.430Z,24.63
2019-02-09T03:33:53.242Z,23.47
2019-02-09T03:36:59.113Z,27.03
2019-02-09T03:40:06.512Z,25.63
2019-02-09T03:43:12.281Z,25.70
2019-02-09T03:46:18.146Z,27.90
2019-02-09T03:49:23.923Z,29.40
2019-02-09T03:52:29.897Z,23.97
2019-02-09T03:55:35.658Z,24.80
2019-02-09T03:58:41.448Z,25.60
2019-02-09T04:01:47.211Z,21.70
2019-02-09T04:04:53.083Z,25.23
2019-02-09T04:07:59.043Z,25.87
2019-02-09T04:11:04.998Z,26.90
2019-02-09T04:14:10.963Z,25.27
2019-02-09T04:17:16.752Z,27.23
2019-02-09T04:20:25.007Z,26.47
2019-02-09T04:23:31.384Z,28.57
2019-02-09T04:26:37.175Z,26.53
2019-02-09T04:29:43.062Z,27.27
2019-02-09T04:32:49.091Z,28.97
2019-02-09T04:35:54.910Z,25.73
2019-02-09T04:39:00.812Z,27.73
2019-02-09T04:42:11.194Z,27.43
2019-02-09T04:45:17.623Z,29.87
2019-02-09T04:48:23.546Z,27.43
2019-02-09T04:51:29.455Z,26.70
2019-02-09T04:54:35.387Z,33.00
2019-02-09T04:57:41.374Z,29.97
2019-02-09T05:00:47.303Z,31.10
2019-02-09T05:04:47.233Z,39.33
2019-02-09T05:08:01.340Z,40.43
2019-02-09T05:11:07.253Z,101.83
2019-02-09T05:14:13.195Z,67.20
2019-02-09T05:17:18.966Z,43.70
2019-02-09T05:20:25.436Z,40.60
2019-02-09T05:23:31.361Z,52.43
2019-02-09T05:26:37.146Z,38.10
2019-02-09T05:29:42.913Z,49.43
2019-02-09T05:32:48.926Z,34.73
2019-02-09T05:35:54.698Z,35.17
2019-02-09T05:39:00.606Z,49.47
2019-02-09T05:42:07.943Z,42.40
2019-02-09T05:45:16.785Z,35.37
2019-02-09T05:48:22.557Z,39.13
2019-02-09T05:51:28.337Z,34.30
2019-02-09T05:54:34.128Z,37.10
2019-02-09T05:57:40.129Z,40.10
2019-02-09T06:00:46.101Z,31.10
2019-02-09T06:03:51.857Z,32.80
2019-02-09T06:06:57.706Z,33.93
2019-02-09T06:10:04.249Z,30.67
2019-02-09T06:13:10.355Z,39.17
2019-02-09T06:16:16.192Z,39.37
2019-02-09T06:19:21.953Z,38.93
2019-02-09T06:22:27.943Z,37.20
2019-02-09T06:25:34.944Z,39.43
2019-02-09T06:28:40.766Z,47.73
2019-02-09T06:31:46.568Z,41.97
2019-02-09T06:34:52.333Z,48.13
2019-02-09T06:37:58.663Z,37.93
2019-02-09T06:41:04.627Z,37.67
2019-02-09T06:44:10.533Z,34.03
2019-02-09T06:47:16.332Z,44.67
2019-02-09T06:50:27.853Z,43.63
2019-02-09T06:53:33.798Z,40.53
2019-02-09T06:56:39.570Z,40.57
2019-02-09T06:59:45.335Z,41.37
2019-02-09T07:02:51.325Z,44.97
2019-02-09T07:05:57.139Z,45.30
2019-02-09T07:09:03.471Z,47.70
2019-02-09T07:12:10.063Z,48.97
2019-02-09T07:15:27.611Z,45.70
2019-02-09T07:18:35.094Z,47.43
2019-02-09T07:21:50.772Z,51.57
2019-02-09T07:24:56.663Z,43.57
2019-02-09T07:28:02.533Z,44.77
2019-02-09T07:31:08.517Z,49.07
2019-02-09T07:34:14.309Z,44.47
2019-02-09T07:37:20.207Z,42.83
2019-02-09T07:40:26.365Z,42.90
2019-02-09T07:43:32.219Z,38.57
2019-02-09T07:46:37.973Z,52.47
2019-02-09T07:49:43.782Z,51.77
2019-02-09T07:52:53.302Z,49.70
2019-02-09T07:55:59.177Z,63.33
2019-02-09T07:59:05.111Z,56.37
2019-02-09T08:02:20.390Z,57.50
2019-02-09T08:05:28.626Z,55.70
2019-02-09T08:08:34.407Z,55.03
2019-02-09T08:11:40.341Z,62.93
2019-02-09T08:14:46.262Z,59.37
2019-02-09T08:17:52.046Z,58.37
2019-02-09T08:20:57.944Z,59.80
2019-02-09T08:24:03.731Z,58.93
2019-02-09T08:27:09.586Z,55.60
2019-02-09T08:30:19.277Z,62.13
2019-02-09T08:33:26.186Z,60.70
2019-02-09T08:36:31.983Z,60.63
2019-02-09T08:39:37.929Z,57.63
2019-02-09T08:42:43.786Z,60.00
2019-02-09T08:45:49.642Z,59.23
2019-02-09T08:48:55.393Z,54.20
2019-02-09T08:52:01.290Z,57.33
2019-02-09T08:55:07.337Z,58.97
2019-02-09T08:58:13.105Z,64.17
2019-02-09T09:01:19.035Z,59.20
2019-02-09T09:04:24.851Z,58.23
2019-02-09T09:07:30.648Z,61.83
2019-02-09T09:10:36.509Z,53.83
2019-02-09T09:13:42.378Z,52.67
2019-02-09T09:16:48.424Z,55.20
2019-02-09T09:19:54.187Z,55.10
2019-02-09T09:23:00.194Z,59.90
2019-02-09T09:26:06.280Z,53.27
2019-02-09T09:29:12.069Z,53.13
2019-02-09T09:32:17.854Z,53.13
2019-02-09T09:35:23.879Z,62.60
2019-02-09T09:38:29.646Z,52.67
2019-02-09T09:41:36.431Z,52.10
2019-02-09T09:44:42.344Z,53.37
2019-02-09T09:47:48.330Z,52.40
2019-02-09T09:50:54.173Z,49.43
2019-02-09T09:54:00.210Z,52.60
2019-02-09T09:57:06.222Z,46.17
2019-02-09T10:00:13.780Z,46.67
2019-02-09T10:03:43.306Z,45.30
2019-02-09T10:06:47.596Z,47.10
2019-02-09T10:09:53.978Z,43.43
2019-02-09T10:12:59.885Z,46.37
2019-02-09T10:16:05.865Z,41.23
2019-02-09T10:19:11.696Z,43.10
2019-02-09T10:22:18.100Z,50.80
2019-02-09T10:25:23.952Z,40.60
2019-02-09T10:28:29.829Z,40.67
2019-02-09T10:31:36.562Z,43.37
2019-02-09T10:34:42.316Z,38.50
2019-02-09T10:37:48.513Z,40.73
2019-02-09T10:40:54.390Z,43.93
2019-02-09T10:44:00.183Z,48.53
2019-02-09T10:47:06.390Z,42.57
2019-02-09T10:50:18.560Z,131.60
2019-02-09T10:53:24.349Z,208.40
2019-02-09T10:56:30.124Z,68.97
2019-02-09T10:59:35.882Z,83.27
2019-02-09T11:02:41.642Z,51.47
2019-02-09T11:05:47.605Z,110.57
2019-02-09T11:08:53.417Z,94.27
2019-02-09T11:11:59.286Z,66.80
2019-02-09T11:15:06.046Z,56.53
2019-02-09T11:18:12.061Z,161.13
2019-02-09T11:21:17.906Z,51.97
2019-02-09T11:24:23.814Z,157.73
2019-02-09T11:27:29.592Z,65.53
2019-02-09T11:30:35.573Z,51.07
2019-02-09T11:33:42.003Z,58.10
2019-02-09T11:36:47.936Z,58.83
2019-02-09T11:39:53.813Z,61.73
2019-02-09T11:42:59.836Z,54.80
2019-02-09T11:46:05.813Z,54.40
2019-02-09T11:49:11.579Z,50.87
2019-02-09T11:52:17.390Z,49.87
2019-02-09T11:55:23.345Z,51.30
2019-02-09T11:58:29.156Z,47.33
2019-02-09T12:01:36.072Z,47.43
2019-02-09T12:04:41.997Z,46.40
2019-02-09T12:07:48.875Z,44.07
2019-02-09T12:10:54.635Z,39.47
2019-02-09T12:14:00.475Z,44.37
2019-02-09T12:17:06.455Z,41.27
2019-02-09T12:20:14.286Z,40.93
2019-02-09T12:23:20.040Z,37.60
2019-02-09T12:26:25.816Z,36.07
2019-02-09T12:29:31.605Z,45.53
2019-02-09T12:32:37.528Z,39.40
2019-02-09T12:35:43.911Z,34.07
2019-02-09T12:38:49.802Z,45.00
2019-02-09T12:41:55.716Z,35.17
2019-02-09T12:45:01.660Z,33.43
2019-02-09T12:48:07.967Z,34.53
2019-02-09T12:51:13.832Z,33.13
2019-02-09T12:54:19.746Z,31.37
2019-02-09T12:57:25.596Z,33.07
2019-02-09T13:00:33.116Z,34.73
2019-02-09T13:03:38.873Z,28.40
2019-02-09T13:06:44.651Z,25.10
2019-02-09T13:09:50.460Z,26.40
2019-02-09T13:12:56.226Z,28.97
2019-02-09T13:16:02.008Z,30.67
2019-02-09T13:19:08.011Z,30.97
2019-02-09T13:22:13.933Z,34.37
2019-02-09T13:25:19.860Z,34.47
2019-02-09T13:28:25.755Z,29.03
2019-02-09T13:31:31.544Z,34.50
2019-02-09T13:34:37.309Z,36.53
2019-02-09T13:37:43.185Z,32.73
2019-02-09T13:40:49.064Z,23.83
2019-02-09T13:43:54.873Z,29.03
2019-02-09T13:47:00.649Z,20.63
2019-02-09T13:50:07.394Z,21.77
2019-02-09T13:53:13.544Z,21.17
2019-02-09T13:56:19.362Z,21.40
2019-02-09T13:59:25.139Z,30.60
2019-02-09T14:02:32.246Z,28.67
2019-02-09T14:05:38.222Z,27.97
2019-02-09T14:08:43.992Z,27.60
2019-02-09T14:11:49.776Z,34.93
2019-02-09T14:14:55.624Z,27.77
2019-02-09T14:18:03.468Z,31.57
2019-02-09T14:21:09.360Z,27.90
2019-02-09T14:24:15.226Z,30.10
2019-02-09T14:27:22.870Z,28.63
2019-02-09T14:30:31.423Z,32.80
2019-02-09T14:33:37.465Z,38.03
2019-02-09T14:36:43.249Z,35.53
2019-02-09T14:39:49.062Z,34.23
2019-02-09T14:42:55.077Z,38.40
2019-02-09T14:46:00.992Z,39.30
2019-02-09T14:49:07.652Z,42.90
2019-02-09T14:52:13.583Z,40.10
2019-02-09T14:55:38.467Z,43.37
2019-02-09T14:58:44.306Z,41.83
2019-02-09T15:01:50.095Z,39.30
2019-02-09T15:04:55.902Z,34.70
2019-02-09T15:08:01.888Z,38.77
2019-02-09T15:11:07.832Z,37.40
2019-02-09T15:14:13.613Z,38.90
2019-02-09T15:17:19.401Z,38.23
2019-02-09T15:20:28.115Z,36.37
2019-02-09T15:23:34.028Z,37.17
2019-02-09T15:26:40.004Z,40.63
2019-02-09T15:29:45.856Z,45.20
2019-02-09T15:32:51.723Z,49.10
2019-02-09T15:35:58.711Z,73.40
2019-02-09T15:39:07.863Z,58.10
2019-02-09T15:42:14.061Z,51.80
2019-02-09T15:45:20.805Z,49.83
2019-02-09T15:48:26.568Z,47.43
2019-02-09T15:51:32.436Z,54.63
2019-02-09T15:54:38.216Z,52.70
2019-02-09T15:57:44.180Z,51.47
2019-02-09T16:00:50.089Z,50.50
2019-02-09T16:03:56.042Z,55.30
2019-02-09T16:07:01.849Z,51.90
2019-02-09T16:10:08.594Z,50.07
2019-02-09T16:13:14.566Z,66.07
2019-02-09T16:16:20.327Z,73.70
2019-02-09T16:19:26.167Z,71.70
2019-02-09T16:22:31.956Z,113.47
2019-02-09T16:25:37.932Z,208.83
2019-02-09T16:28:43.685Z,162.07
2019-02-09T16:31:49.561Z,151.43
2019-02-09T16:34:55.336Z,138.47
2019-02-09T16:38:01.334Z,129.90
2019-02-09T16:41:07.326Z,90.57
2019-02-09T16:44:13.154Z,96.03
2019-02-09T16:47:20.092Z,113.33
2019-02-09T16:50:26.285Z,149.63
2019-02-09T16:53:32.161Z,164.87
2019-02-09T16:56:37.967Z,114.13
2019-02-09T16:59:43.853Z,107.27
2019-02-09T17:02:49.862Z,105.00
2019-02-09T17:05:55.662Z,106.30
2019-02-09T17:09:01.515Z,105.27
2019-02-09T17:12:08.821Z,108.27
2019-02-09T17:15:17.818Z,132.20
2019-02-09T17:18:23.702Z,125.47
2019-02-09T17:21:29.538Z,105.07
2019-02-09T17:24:35.289Z,111.07
2019-02-09T17:27:41.139Z,103.10
2019-02-09T17:30:46.906Z,85.90
2019-02-09T17:33:52.683Z,97.57
2019-02-09T17:36:58.443Z,93.50
2019-02-09T17:40:05.742Z,87.33
2019-02-09T17:43:11.948Z,178.73
2019-02-09T17:46:18.629Z,409.67
2019-02-09T17:49:25.511Z,286.60
2019-02-09T17:52:31.363Z,130.63
2019-02-09T17:55:37.250Z,167.93
2019-02-09T17:58:43.057Z,126.13
2019-02-09T18:01:48.802Z,117.43
2019-02-09T18:04:54.559Z,126.23
2019-02-09T18:08:00.353Z,118.97
2019-02-09T18:11:06.566Z,123.00
2019-02-09T18:14:12.338Z,119.67
2019-02-09T18:17:18.258Z,131.13
2019-02-09T18:20:24.155Z,151.90
2019-02-09T18:23:30.052Z,174.63
2019-02-09T18:26:35.997Z,303.53
2019-02-09T18:29:41.879Z,217.47
2019-02-09T18:32:47.931Z,193.03
2019-02-09T18:35:53.760Z,181.23
2019-02-09T18:38:59.655Z,154.07
2019-02-09T18:42:05.583Z,151.33
2019-02-09T18:45:12.720Z,139.67
2019-02-09T18:48:18.506Z,142.17
2019-02-09T18:51:24.410Z,137.23
2019-02-09T18:54:30.211Z,140.23
2019-02-09T18:57:36.210Z,141.93
2019-02-09T19:00:42.624Z,147.20
2019-02-09T19:03:48.523Z,142.13
2019-02-09T19:06:54.374Z,137.57
2019-02-09T19:10:00.220Z,139.77
2019-02-09T19:13:06.503Z,139.67
2019-02-09T19:16:12.496Z,135.40
2019-02-09T19:19:18.452Z,137.57
2019-02-09T19:22:27.883Z,151.83
2019-02-09T19:25:33.893Z,138.87
2019-02-09T19:28:39.708Z,148.20
2019-02-09T19:31:45.565Z,143.20
2019-02-09T19:34:51.351Z,185.53
2019-02-09T19:37:57.375Z,207.93
2019-02-09T19:41:03.192Z,196.43
2019-02-09T19:44:08.961Z,160.30
2019-02-09T19:47:15.759Z,149.43
2019-02-09T19:50:21.852Z,154.47
2019-02-09T19:53:29.621Z,145.73
2019-02-09T19:56:35.377Z,150.07
2019-02-09T19:59:41.168Z,154.73
2019-02-09T20:02:47.044Z,155.03
2019-02-09T20:05:52.799Z,183.27
2019-02-09T20:08:58.780Z,166.83
2019-02-09T20:12:07.273Z,165.23
2019-02-09T20:15:13.856Z,154.77
2019-02-09T20:18:19.733Z,158.73
2019-02-09T20:21:25.688Z,171.50
2019-02-09T20:24:31.478Z,163.57
2019-02-09T20:27:37.296Z,153.83
2019-02-09T20:30:43.541Z,144.20
2019-02-09T20:33:49.439Z,135.40
2019-02-09T20:36:55.257Z,146.90
2019-02-09T20:40:01.065Z,139.27
2019-02-09T20:43:09.200Z,152.27
2019-02-09T20:46:15.033Z,159.20
2019-02-09T20:49:20.834Z,162.13
2019-02-09T20:52:26.619Z,211.67
2019-02-09T20:55:32.509Z,254.17
2019-02-09T20:58:38.282Z,301.97
2019-02-09T21:01:44.111Z,221.50
2019-02-09T21:04:49.963Z,187.20
2019-02-09T21:07:55.893Z,207.43
2019-02-09T21:11:01.693Z,209.33
2019-02-09T21:14:07.574Z,196.23
2019-02-09T21:17:13.576Z,172.03
2019-02-09T21:20:19.571Z,215.17
2019-02-09T21:23:25.458Z,212.27
2019-02-09T21:26:31.308Z,187.80
2019-02-09T21:29:37.230Z,179.47
2019-02-09T21:32:43.136Z,160.47
2019-02-09T21:35:48.883Z,165.23
2019-02-09T21:38:55.786Z,168.67
2019-02-09T21:42:01.601Z,174.70
2019-02-09T21:45:09.156Z,183.57
2019-02-09T21:48:15.019Z,180.47
2019-02-09T21:51:21.798Z,179.27
2019-02-09T21:54:27.572Z,169.20
2019-02-09T21:57:33.380Z,164.63
2019-02-09T22:00:41.265Z,156.83
2019-02-09T22:03:47.042Z,162.40
2019-02-09T22:06:52.824Z,152.03
2019-02-09T22:10:01.637Z,148.33
2019-02-09T22:13:07.797Z,151.40
2019-02-09T22:16:13.755Z,154.50
2019-02-09T22:19:19.573Z,160.73
2019-02-09T22:22:28.803Z,142.50
2019-02-09T22:25:34.681Z,141.57
2019-02-09T22:28:40.456Z,133.70
2019-02-09T22:31:46.437Z,111.73
2019-02-09T22:34:52.234Z,119.07
2019-02-09T22:37:59.118Z,105.83
2019-02-09T22:41:05.008Z,112.07
2019-02-09T22:44:10.818Z,103.27
2019-02-09T22:47:16.615Z,106.03
2019-02-09T22:50:30.967Z,100.37
2019-02-09T22:53:36.848Z,89.63
2019-02-09T22:56:42.638Z,83.63
2019-02-09T22:59:48.642Z,85.33
2019-02-09T23:02:54.510Z,83.30
2019-02-09T23:06:41.797Z,73.30
2019-02-09T23:09:47.598Z,77.57
2019-02-09T23:12:53.367Z,92.63
2019-02-09T23:15:59.272Z,71.17
2019-02-09T23:19:05.332Z,78.27
2019-02-09T23:22:11.256Z,65.47
2019-02-09T23:25:17.002Z,63.63
2019-02-09T23:28:23.888Z,65.07
2019-02-09T23:31:29.777Z,64.07
2019-02-09T23:34:35.632Z,71.80
2019-02-09T23:37:41.398Z,60.70
2019-02-09T23:40:47.168Z,62.00
2019-02-09T23:43:52.941Z,64.80
2019-02-09T23:46:58.932Z,70.77
2019-02-09T23:50:06.051Z,75.60
2019-02-09T23:53:11.834Z,67.80
2019-02-09T23:56:17.592Z,75.50
2019-02-09T23:59:23.383Z,72.90
